Aktuální počasí v Česku a ve světě - METAR

Seznam meteostanic umístěných nejčasteji na letišti v ČR a ve světě

Vyhledat místa podle abecedy:
A B C D E F G H I J K L M N O P Q R S T U V W X Y Z

Filtrovat:

ID stanice:
a/nebo
Název místa (fulltext):
 
Místo (ID)Naposledy načteno 
Milešovka (Milesovka) 24.02.2024 08:00 UTC Zobrazit data
Místo: Milešovka
Teplota: 0 °C (pocitová: -8.4 °C)
Vítr: 4 m/s z(e) 220°
Počasí: skorojasno
Dohlednost: 60 km
Zákl. oblačnosti: 1/8 90 m
Vlhkost: 93%
Mošnov (Ostrava/Mo) 24.02.2024 08:00 UTC Zobrazit data
Místo: Mošnov
Teplota: 5 °C (pocitová: -3.2 °C)
Vítr: 7 m/s z(e) 220°
Počasí: zataženo
Dohlednost: 40 km
Zákl. oblačnosti: 8/8 390 m
Vlhkost: 87%
Macau (VMMC) 24.02.2024 08:00 UTC Zobrazit METAR
VMMC 240800Z 01016KT 9999 FEW022 SCT040 17/12 Q1020 NOSIG
Madeira (LPMA) 24.02.2024 08:00 UTC Zobrazit METAR
LPMA 240800Z 02012G22KT 350V050 9999 SCT015 16/09 Q1027
Madrid (LETO) 24.02.2024 08:00 UTC Zobrazit METAR
LETO 240800Z 24005KT 220V280 9999 FEW046 BKN055 04/01 Q1012 NOSIG
Majuro Atoll (PKMA) Zatím nenačteno  
Malabo (FGSL) 24.02.2024 04:00 UTC Zobrazit METAR
FGSL 240400Z 24005KT 9999 FEW010 BKN050 27/25 Q1010 NOSIG
Malaga (LEMG) 24.02.2024 08:00 UTC Zobrazit METAR
LEMG 240800Z 30009KT 9999 SCT070 11/04 Q1018 NOSIG
Male (VRMM) 24.02.2024 08:00 UTC Zobrazit METAR
VRMM 240800Z 07010KT 9999 FEW019 32/25 Q1010 NOSIG
Malmo (ESMS) 24.02.2024 07:50 UTC Zobrazit METAR
ESMS 240750Z 11004KT CAVOK 03/03 Q0999
Malta (LMML) 24.02.2024 07:45 UTC Zobrazit METAR
LMML 240745Z 19010KT 160V230 CAVOK 16/14 Q1013 NOSIG
Managua (MNMG) 24.02.2024 07:00 UTC Zobrazit METAR
MNMG 240700Z 12008KT 9999 FEW020 24/20 Q1011 A2988 NOSIG
Manchester (EGCC) 24.02.2024 04:50 UTC Zobrazit METAR
EGCC 240450Z AUTO 16002KT 9999 SCT036 00/M00 Q0990
Manila (RPLL) 24.02.2024 08:00 UTC Zobrazit METAR
RPLL 240800Z 14008KT 060V190 9999 SCT025 BKN100 31/22 Q1013 NOSIG RMK A2991
Manzini (FDMS) 24.02.2024 08:00 UTC Zobrazit METAR
FDMS 240800Z 02005KT 9999 FEW030 27/21 Q1017 NOSIG
Maputo (FQMA) 24.02.2024 08:00 UTC Zobrazit METAR
FQMA 240800Z 35007KT 9999 SCT020 31/22 Q1014 NOSIG
Maribor (LJMB) 24.02.2024 08:00 UTC Zobrazit METAR
LJMB 240800Z 22008KT 9999 FEW035 SCT100 BKN250 09/04 Q1006
Marrakech (GMMX) 24.02.2024 08:00 UTC Zobrazit METAR
GMMX 240800Z 08007KT 9999 FEW026 SCT200 12/06 Q1023 NOSIG
Maseru (FXMM) 23.02.2024 12:00 UTC Zobrazit METAR
FXMM 231200Z 27006KT 9999 BKN035 30/09 Q1020 NOSIG
Mauritius (FIMP) 24.02.2024 07:00 UTC Zobrazit METAR
FIMP 240700Z 23010KT 9999 SCT016 SCT050 29/25 Q1010
Melilla (GEML) 24.02.2024 08:00 UTC Zobrazit METAR
GEML 240800Z 29019G32KT 260V340 9999 FEW030 SCT044 14/07 Q1018
Mexico City (MMMX) 24.02.2024 07:50 UTC Zobrazit METAR
MMMX 240750Z 07003KT 6SM SKC 14/07 A3034 NOSIG RMK HZY
Midway Atoll, Sand Island (PMDY) 24.02.2024 07:56 UTC Zobrazit METAR
PMDY 240756Z AUTO 34011KT 10SM BKN015 OVC021 17/15 A3001 RMK AO2 SLP162 T01720150
Milan (LIMC) 24.02.2024 07:50 UTC Zobrazit METAR
LIMC 240750Z 02005KT 9999 BKN009 06/03 Q1005 NOSIG
Minsk (UMMM) 11.07.2016 14:00 UTC Zobrazit METAR
UMMM 111400Z ///// //// BKN040 BKN200 28/16 Q1009 NOSIG RMK QFE738
Mitilini (LGMT) 24.02.2024 07:50 UTC Zobrazit METAR
LGMT 240750Z 18014KT 9999 SCT020 16/11 Q1021
Mogadishu (HCMM) 24.02.2024 07:00 UTC Zobrazit METAR
HCMM 240700Z 05017KT 9999 SCT025 31/25 Q1013
Monrovia (GLRB) 24.02.2024 08:00 UTC Zobrazit METAR
GLRB 240800Z 00000KT 6000 VCBR FEW006 SCT011 26/25 Q1011 NOSIG
Montevideo (SUMU) 24.02.2024 08:00 UTC Zobrazit METAR
SUMU 240800Z 16011KT 9999 BKN020 OVC150 22/17 Q1019 NOSIG
Montpellier/ Mediterranee (LFMT) 24.02.2024 08:00 UTC Zobrazit METAR
LFMT 240800Z AUTO 31005KT CAVOK 06/03 Q1006 NOSIG
Moscow (UUEE) Zatím nenačteno  
Mostar (LQMO) 24.02.2024 08:00 UTC Zobrazit METAR
LQMO 240800Z 11011KT 9999 RA FEW020 BKN037 OVC055 12/11 Q1010
Mount Pleasant (EGYP) 24.02.2024 07:50 UTC Zobrazit METAR
EGYP 240750Z 22015KT 9999 FEW024 BKN032 05/02 Q1016
Munich (EDDM) 24.02.2024 07:50 UTC Zobrazit METAR
EDDM 240750Z AUTO VRB02KT CAVOK 02/00 Q1003 BECMG 21005KT
Muscat (OOMS) 24.02.2024 07:50 UTC Zobrazit METAR
OOMS 240750Z 04007KT CAVOK 26/15 Q1016 NOSIG
Reklama

Krásné fotografie přírody - (nejen) tapety na pozadí do počítače

Článek
Fotogalerie jarních květin
13. dubna 2023 12:19
Článek
Fotografie slunečné zimní krajiny
7. prosince 2022 17:13
Článek
Obrázky na téma slunečno
25. srpna 2022 05:03
Článek
Obrázky květin
5. června 2022 12:12

Vyhledat
Přidejte si Počasí Slunečno na svůj Facebook
Facebook Počasí Slunečno.cz
Aplikace pro Windows 10/11 nebo chytré mobilní telefony
Stáhněte si aplikaci Slunečno.cz na Microsoft Store Stáhněte si aplikaci Slunečno.cz na Google Play